createdAt,value
2023-05-02T05:22:21.109Z,20.5061
2023-05-02T05:23:15.261Z,19.0297
2023-05-02T05:24:17.115Z,18.0258
2023-05-02T05:25:18.948Z,17.3292
2023-05-02T05:26:20.790Z,17.0893
2023-05-02T05:27:22.647Z,17.1647
2023-05-02T05:28:24.486Z,17.3570
2023-05-02T05:29:26.339Z,17.5373
2023-05-02T05:30:28.186Z,17.6458
2023-05-02T05:31:30.063Z,17.5920
2023-05-02T05:32:31.852Z,17.5659
2023-05-02T05:33:33.712Z,17.6248
2023-05-02T05:34:35.552Z,17.7123
2023-05-02T05:35:37.358Z,17.8124
2023-05-02T05:36:39.193Z,17.8296
2023-05-02T05:37:41.024Z,17.6035
2023-05-02T05:38:42.972Z,17.4849
2023-05-02T05:39:44.722Z,17.5338
2023-05-02T05:40:46.576Z,17.6320
2023-05-02T05:41:48.411Z,17.7222
2023-05-02T05:42:50.255Z,17.8095
2023-05-02T05:43:52.084Z,17.6622
2023-05-02T05:44:53.924Z,17.5433
2023-05-02T05:45:55.751Z,17.5885
2023-05-02T05:46:57.620Z,17.6493
2023-05-02T05:47:59.486Z,17.7551
2023-05-02T05:49:01.262Z,17.8590
2023-05-02T05:50:03.398Z,17.7460
2023-05-02T05:51:04.931Z,17.5566
2023-05-02T05:52:06.767Z,17.5439
2023-05-02T05:53:08.732Z,17.6180
2023-05-02T05:54:10.451Z,17.7271
2023-05-02T05:55:12.306Z,17.8463
2023-05-02T05:56:14.154Z,17.8177
2023-05-02T05:57:15.998Z,17.5782
2023-05-02T05:58:17.814Z,17.4975
2023-05-02T05:59:19.666Z,17.5720
2023-05-02T06:00:21.496Z,17.6945
2023-05-02T06:01:23.331Z,17.8095
2023-05-02T06:02:25.204Z,17.8758
2023-05-02T06:03:27.125Z,17.6895
2023-05-02T06:04:28.916Z,17.4597
2023-05-02T06:05:30.715Z,17.4706
2023-05-02T06:06:32.576Z,17.5778
2023-05-02T06:07:34.362Z,17.7187
2023-05-02T06:08:36.277Z,17.8089
2023-05-02T06:09:38.037Z,17.7965
2023-05-02T06:10:39.883Z,17.5336
2023-05-02T06:11:41.703Z,17.3882
2023-05-02T06:12:43.544Z,17.4745
2023-05-02T06:13:45.377Z,17.6160
2023-05-02T06:14:47.210Z,17.7522
2023-05-02T06:15:49.081Z,17.8430
2023-05-02T06:16:50.885Z,17.7269
2023-05-02T06:17:52.818Z,17.4907
2023-05-02T06:18:54.554Z,17.4469
2023-05-02T06:19:56.364Z,17.5293
2023-05-02T06:20:58.226Z,17.6583
2023-05-02T06:22:00.108Z,17.7840
2023-05-02T06:23:01.895Z,17.8179
2023-05-02T06:24:03.723Z,17.6008
2023-05-02T06:25:05.564Z,17.5110
2023-05-02T06:26:07.393Z,17.5626
2023-05-02T06:27:09.225Z,17.6423
2023-05-02T06:28:11.073Z,17.7384
2023-05-02T06:29:12.892Z,17.8015
2023-05-02T06:30:14.766Z,17.6413
2023-05-02T06:31:16.621Z,17.5805
2023-05-02T06:32:18.410Z,17.6528
2023-05-02T06:33:20.239Z,17.7312
2023-05-02T06:34:22.084Z,17.8267
2023-05-02T06:35:23.894Z,17.9120
2023-05-02T06:36:25.738Z,17.7312
2023-05-02T06:37:27.572Z,17.4808
2023-05-02T06:38:29.417Z,17.4352
2023-05-02T06:39:31.244Z,17.5501
2023-05-02T06:40:33.096Z,17.6936
2023-05-02T06:41:34.933Z,17.8058
2023-05-02T06:42:36.771Z,17.8456
2023-05-02T06:43:38.679Z,17.5952
2023-05-02T06:44:40.435Z,17.4102
2023-05-02T06:45:42.292Z,17.4289
2023-05-02T06:46:44.196Z,17.5597
2023-05-02T06:47:46.066Z,17.6858
2023-05-02T06:48:47.829Z,17.7885
2023-05-02T06:49:49.645Z,17.7169
2023-05-02T06:50:51.487Z,17.5488
2023-05-02T06:51:53.297Z,17.5386
2023-05-02T06:52:55.175Z,17.6141
2023-05-02T06:53:56.969Z,17.7107
2023-05-02T06:54:58.840Z,17.8062
2023-05-02T06:56:00.645Z,17.7867
2023-05-02T06:57:02.496Z,17.5381
2023-05-02T06:58:04.354Z,17.4463
2023-05-02T06:59:06.159Z,17.5462
2023-05-02T07:00:08.208Z,17.6540
2023-05-02T07:01:09.895Z,17.7561
2023-05-02T07:02:11.667Z,17.8325
2023-05-02T07:03:13.565Z,17.6443
2023-05-02T07:04:15.390Z,17.5143
2023-05-02T07:05:17.234Z,17.5671
2023-05-02T07:06:19.144Z,17.6491
2023-05-02T07:07:20.870Z,17.7528
2023-05-02T07:08:22.725Z,17.8444
2023-05-02T07:09:24.552Z,17.7171
2023-05-02T07:10:26.430Z,17.5698
2023-05-02T07:11:28.218Z,17.5735
2023-05-02T07:12:30.041Z,17.6421
2023-05-02T07:13:31.881Z,17.7579
2023-05-02T07:14:33.724Z,17.8573
2023-05-02T07:15:35.559Z,17.7894
2023-05-02T07:16:37.489Z,17.5669
2023-05-02T07:17:39.245Z,17.5032
2023-05-02T07:18:41.080Z,17.5774
2023-05-02T07:19:45.379Z,17.6805
2023-05-02T07:20:44.753Z,17.8011
2023-05-02T07:21:46.577Z,18.0584
2023-05-02T07:22:48.410Z,18.3575
2023-05-02T07:23:50.237Z,18.4397
2023-05-02T07:24:52.078Z,18.4900
2023-05-02T07:25:53.906Z,18.5268
2023-05-02T07:27:03.570Z,18.5545
2023-05-02T07:27:57.609Z,18.5453
2023-05-02T07:28:59.437Z,18.5662
2023-05-02T07:30:01.841Z,18.6295
2023-05-02T07:31:03.102Z,18.6017
2023-05-02T07:32:04.979Z,18.6572
2023-05-02T07:33:06.830Z,18.6211
2023-05-02T07:34:08.621Z,18.6145
2023-05-02T07:35:10.489Z,18.5931
2023-05-02T07:36:12.291Z,18.6069
2023-05-02T07:37:22.111Z,18.6276
2023-05-02T07:38:16.006Z,18.6728
2023-05-02T07:39:17.796Z,18.6512
2023-05-02T07:40:19.636Z,18.6697
2023-05-02T07:41:21.515Z,18.7648
2023-05-02T07:42:23.319Z,18.7371
2023-05-02T07:43:25.141Z,18.7420
2023-05-02T07:44:26.978Z,18.7807
2023-05-02T07:45:28.819Z,18.7985
2023-05-02T07:46:30.689Z,18.8279
2023-05-02T07:47:32.480Z,18.7915
2023-05-02T07:48:34.312Z,18.7589
2023-05-02T07:49:36.145Z,18.7424
2023-05-02T07:50:37.969Z,18.7383
2023-05-02T07:51:39.811Z,18.7685
2023-05-02T07:52:41.634Z,18.8121
2023-05-02T07:53:43.466Z,18.7825
2023-05-02T07:54:45.295Z,18.7065
2023-05-02T07:55:47.134Z,18.6929
2023-05-02T07:56:48.988Z,18.7063
2023-05-02T07:57:50.823Z,18.6909
2023-05-02T07:58:52.687Z,18.7135
2023-05-02T07:59:54.500Z,18.7388
2023-05-02T08:00:56.311Z,18.7823
2023-05-02T08:01:58.162Z,18.7685
2023-05-02T08:03:00.132Z,18.7646
2023-05-02T08:04:01.985Z,18.8127
2023-05-02T08:05:03.689Z,18.8028
2023-05-02T08:06:05.542Z,18.7607
2023-05-02T08:07:07.334Z,18.8197
2023-05-02T08:08:09.175Z,18.7788
2023-05-02T08:09:11.006Z,18.7831
2023-05-02T08:10:12.824Z,18.7745
2023-05-02T08:11:14.662Z,18.7416
2023-05-02T08:12:16.499Z,18.7373
2023-05-02T08:13:18.334Z,18.7258
2023-05-02T08:14:20.187Z,18.7242
2023-05-02T08:15:22.033Z,18.4538
2023-05-02T08:16:23.899Z,17.9075
2023-05-02T08:17:25.686Z,17.4521
2023-05-02T08:18:27.513Z,17.2218
2023-05-02T08:19:29.358Z,17.2083
2023-05-02T08:20:31.211Z,17.3284
2023-05-02T08:21:33.120Z,17.4747
2023-05-02T08:22:34.927Z,17.5911
2023-05-02T08:23:36.733Z,17.5671
2023-05-02T08:24:38.586Z,17.6098
2023-05-02T08:25:40.403Z,17.6883
2023-05-02T08:26:42.220Z,17.7809
2023-05-02T08:27:44.077Z,17.9179
2023-05-02T08:28:45.901Z,17.9235
2023-05-02T08:29:47.757Z,17.6973
2023-05-02T08:30:49.604Z,17.4743
2023-05-02T08:31:51.446Z,17.4607
2023-05-02T08:32:53.288Z,17.5759
2023-05-02T08:33:55.128Z,17.6988
2023-05-02T08:34:56.936Z,17.7986
2023-05-02T08:35:58.787Z,17.7723
2023-05-02T08:37:00.605Z,17.5690
2023-05-02T08:38:02.470Z,17.5166
2023-05-02T08:39:04.289Z,17.5825
2023-05-02T08:40:06.128Z,17.6865
2023-05-02T08:41:07.961Z,17.7779
2023-05-02T08:42:09.791Z,17.8387
2023-05-02T08:43:11.651Z,17.6437
2023-05-02T08:44:13.476Z,17.4862
2023-05-02T08:45:16.520Z,17.5268
2023-05-02T08:46:17.278Z,17.6374
2023-05-02T08:47:19.209Z,17.7341
2023-05-02T08:48:21.012Z,17.8395
2023-05-02T08:49:22.673Z,17.7879
2023-05-02T08:50:24.515Z,17.5379
2023-05-02T08:51:26.368Z,17.4751
2023-05-02T08:52:28.182Z,17.5379
2023-05-02T08:53:30.035Z,17.6265
2023-05-02T08:54:31.861Z,17.7292
2023-05-02T08:55:33.702Z,17.8076
2023-05-02T08:56:35.544Z,17.6409
2023-05-02T08:57:37.384Z,17.5201
2023-05-02T08:58:39.208Z,17.5507
2023-05-02T08:59:41.063Z,17.6257
2023-05-02T09:00:42.956Z,17.7382
2023-05-02T09:01:44.833Z,17.8358
2023-05-02T09:02:46.668Z,17.7331
2023-05-02T09:03:48.512Z,17.5287
2023-05-02T09:04:50.320Z,17.4858
2023-05-02T09:05:52.100Z,17.5655
2023-05-02T09:06:53.959Z,17.6756
2023-05-02T09:07:55.755Z,17.8015
2023-05-02T09:08:57.778Z,17.7811
2023-05-02T09:09:59.508Z,17.5685
2023-05-02T09:11:01.289Z,17.5264
2023-05-02T09:12:03.126Z,17.6065
2023-05-02T09:13:04.997Z,17.6973
2023-05-02T09:14:06.820Z,17.7957
2023-05-02T09:15:08.641Z,17.8610
2023-05-02T09:16:10.515Z,17.6988
2023-05-02T09:17:12.332Z,17.5061
2023-05-02T09:18:14.162Z,17.5028
2023-05-02T09:19:16.013Z,17.5761
2023-05-02T09:20:17.847Z,17.6901
2023-05-02T09:21:21.284Z,17.7961
2023-05-02T09:22:21.560Z,17.7779
2023-05-02T09:23:23.375Z,17.5655
2023-05-02T09:24:25.223Z,17.4946
2023-05-02T09:25:27.126Z,17.5523
2023-05-02T09:26:30.354Z,17.6698
2023-05-02T09:27:30.804Z,17.7729
2023-05-02T09:28:32.641Z,17.8532
2023-05-02T09:29:34.454Z,17.6793
2023-05-02T09:30:36.297Z,17.4958
2023-05-02T09:31:55.032Z,17.5158
2023-05-02T09:32:40.974Z,17.6300
2023-05-02T09:33:41.818Z,17.7536
2023-05-02T09:34:43.649Z,17.8598
2023-05-02T09:35:45.539Z,17.7920
2023-05-02T09:36:47.320Z,17.5525
2023-05-02T09:37:49.155Z,17.4474
2023-05-02T09:38:51.018Z,17.5180
2023-05-02T09:39:52.826Z,17.6287
2023-05-02T09:40:54.667Z,17.7436
2023-05-02T09:41:56.513Z,17.8146
2023-05-02T09:42:58.320Z,17.6550
2023-05-02T09:44:00.181Z,17.5158
2023-05-02T09:45:02.093Z,17.5846
2023-05-02T09:46:03.868Z,17.6858
2023-05-02T09:47:05.691Z,17.8025
2023-05-02T09:48:07.553Z,17.9077
2023-05-02T09:49:09.363Z,17.7900
2023-05-02T09:50:11.196Z,17.5014
2023-05-02T09:51:13.026Z,17.4252
2023-05-02T09:52:14.848Z,17.5178
2023-05-02T09:53:16.690Z,17.6316
2023-05-02T09:54:18.531Z,17.7512
2023-05-02T09:55:20.376Z,17.8233
2023-05-02T09:56:23.896Z,17.6322
2023-05-02T09:57:24.035Z,17.4732
2023-05-02T09:58:25.882Z,17.5201
2023-05-02T09:59:27.726Z,17.6105
2023-05-02T10:00:29.567Z,17.7158
2023-05-02T10:01:31.404Z,17.8343
2023-05-02T10:02:33.281Z,17.7468
2023-05-02T10:03:35.081Z,17.4808
2023-05-02T10:04:36.955Z,17.4332
2023-05-02T10:05:38.761Z,17.5398
2023-05-02T10:06:40.678Z,17.6505
2023-05-02T10:07:42.443Z,17.7569
2023-05-02T10:08:44.285Z,17.8181
2023-05-02T10:09:46.148Z,17.6384
2023-05-02T10:10:47.937Z,17.5264
2023-05-02T10:11:49.785Z,17.5952
2023-05-02T10:12:51.614Z,17.6632
2023-05-02T10:13:53.461Z,17.7824
2023-05-02T10:14:55.323Z,17.8674
2023-05-02T10:15:57.259Z,17.7070
2023-05-02T10:16:58.988Z,17.5390
2023-05-02T10:18:00.934Z,17.5369
2023-05-02T10:19:02.664Z,17.6031
2023-05-02T10:20:04.504Z,17.6889
2023-05-02T10:21:06.334Z,17.7824
2023-05-02T10:22:08.184Z,17.7127
2023-05-02T10:23:10.018Z,17.5525
2023-05-02T10:24:11.862Z,17.5655
2023-05-02T10:25:13.737Z,17.6406
2023-05-02T10:26:15.542Z,17.7296
2023-05-02T10:27:17.373Z,17.8411
2023-05-02T10:28:19.206Z,17.7877
2023-05-02T10:29:21.047Z,17.5429
2023-05-02T10:30:22.884Z,17.4773
2023-05-02T10:31:24.838Z,17.5901
2023-05-02T10:32:26.613Z,17.7053
2023-05-02T10:33:28.370Z,17.8222
2023-05-02T10:34:30.210Z,17.8654
2023-05-02T10:35:32.045Z,17.6591
2023-05-02T10:36:33.880Z,17.4847
2023-05-02T10:37:35.751Z,17.5205
2023-05-02T10:38:37.612Z,17.6150
2023-05-02T10:39:39.406Z,17.7197
2023-05-02T10:40:41.241Z,17.8278
2023-05-02T10:41:43.095Z,17.7598
2023-05-02T10:42:44.915Z,17.5805
2023-05-02T10:43:46.787Z,17.5575
2023-05-02T10:44:48.589Z,17.6353
2023-05-02T10:45:50.419Z,17.7360
2023-05-02T10:46:52.283Z,17.8401
2023-05-02T10:47:54.145Z,17.8189
2023-05-02T10:48:55.920Z,17.5462
2023-05-02T10:49:57.765Z,17.4065
2023-05-02T10:50:59.597Z,17.4749
2023-05-02T10:52:01.424Z,17.6012
2023-05-02T10:53:03.275Z,17.7189
2023-05-02T10:54:05.110Z,17.8263
2023-05-02T10:55:06.938Z,17.7076
2023-05-02T10:56:08.814Z,17.4780
2023-05-02T10:57:10.613Z,17.4934
2023-05-02T10:58:12.471Z,17.5829
2023-05-02T10:59:14.300Z,17.6848
2023-05-02T11:00:16.140Z,17.7945
2023-05-02T11:01:18.004Z,17.7678
2023-05-02T11:02:19.893Z,17.5560
2023-05-02T11:03:21.698Z,17.4798
2023-05-02T11:04:23.493Z,17.5669
2023-05-02T11:05:25.352Z,17.6842
2023-05-02T11:06:27.191Z,17.7824
2023-05-02T11:07:29.039Z,17.8339
2023-05-02T11:08:30.867Z,17.6554
2023-05-02T11:09:32.721Z,17.5322
2023-05-02T11:10:34.564Z,17.5688
2023-05-02T11:11:36.367Z,17.6692
2023-05-02T11:12:38.203Z,17.7696
2023-05-02T11:13:40.062Z,17.8898
2023-05-02T11:14:41.874Z,17.7446
2023-05-02T11:15:43.768Z,17.5203
2023-05-02T11:16:45.592Z,17.4837
2023-05-02T11:17:47.416Z,17.5788
2023-05-02T11:18:49.241Z,17.6865
2023-05-02T11:19:51.089Z,17.7908
2023-05-02T11:20:52.906Z,17.8154
2023-05-02T11:21:54.749Z,17.5616
2023-05-02T11:22:56.585Z,17.4570
2023-05-02T11:23:58.407Z,17.5266
2023-05-02T11:25:00.418Z,17.6248
2023-05-02T11:26:02.128Z,17.7417
2023-05-02T11:27:03.933Z,17.8452
2023-05-02T11:28:05.770Z,17.6988
2023-05-02T11:29:07.618Z,17.5347
2023-05-02T11:30:09.580Z,17.5564
2023-05-02T11:31:11.291Z,17.6489
2023-05-02T11:32:13.177Z,17.7596
2023-05-02T11:33:15.039Z,17.8822
2023-05-02T11:34:16.793Z,17.8134
2023-05-02T11:35:18.624Z,17.5675
2023-05-02T11:36:20.483Z,17.4870
2023-05-02T11:37:22.319Z,17.5766
2023-05-02T11:38:24.152Z,17.6910
2023-05-02T11:39:25.987Z,17.8044
2023-05-02T11:40:27.831Z,17.8389
2023-05-02T11:41:29.656Z,17.6560
2023-05-02T11:42:31.518Z,17.5090
2023-05-02T11:43:33.356Z,17.5618
2023-05-02T11:44:35.177Z,17.6441
2023-05-02T11:45:37.002Z,17.7509
2023-05-02T11:46:39.001Z,17.8370
2023-05-02T11:47:40.739Z,17.7470
2023-05-02T11:48:42.516Z,17.5217
2023-05-02T11:49:44.351Z,17.5158
2023-05-02T11:50:49.674Z,17.5983
2023-05-02T11:51:48.032Z,17.7088
2023-05-02T11:52:49.869Z,17.8126
2023-05-02T11:53:51.715Z,17.8161
2023-05-02T11:54:53.568Z,17.5648
2023-05-02T11:55:55.396Z,17.4767
2023-05-02T11:56:57.226Z,17.5470
2023-05-02T11:57:59.057Z,17.6591
2023-05-02T11:59:00.913Z,17.7731
2023-05-02T12:00:02.752Z,17.8467
2023-05-02T12:01:04.575Z,17.6819
2023-05-02T12:02:06.410Z,17.5094
2023-05-02T12:03:08.378Z,17.5460
2023-05-02T12:04:10.092Z,17.6271
2023-05-02T12:05:11.980Z,17.7066
2023-05-02T12:06:14.113Z,17.8220
2023-05-02T12:07:15.637Z,17.7705
2023-05-02T12:08:17.444Z,17.5527
2023-05-02T12:09:19.338Z,17.5340
2023-05-02T12:10:21.123Z,17.6094
2023-05-02T12:11:22.958Z,17.7212
2023-05-02T12:12:24.791Z,17.8329
2023-05-02T12:13:26.651Z,17.8442
2023-05-02T12:14:28.451Z,17.6012
2023-05-02T12:15:30.291Z,17.4712
2023-05-02T12:16:32.143Z,17.5153
2023-05-02T12:17:34.006Z,17.6361
2023-05-02T12:18:35.833Z,17.7590
2023-05-02T12:19:37.652Z,17.8569
2023-05-02T12:20:39.492Z,17.7329
2023-05-02T12:21:41.313Z,17.4839
2023-05-02T12:22:43.144Z,17.4317
2023-05-02T12:23:44.995Z,17.5484
2023-05-02T12:24:46.825Z,17.6862
2023-05-02T12:25:48.667Z,17.8126
2023-05-02T12:26:51.872Z,17.8397
2023-05-02T12:27:52.335Z,17.6213
2023-05-02T12:28:54.184Z,17.4751
2023-05-02T12:29:56.005Z,17.5045
2023-05-02T12:30:57.833Z,17.6217
2023-05-02T12:31:59.797Z,17.7183
2023-05-02T12:33:01.562Z,17.8005
2023-05-02T12:34:03.375Z,17.7312
2023-05-02T12:35:05.805Z,17.6801
2023-05-02T12:36:07.042Z,17.7214
2023-05-02T12:37:08.871Z,17.7947
2023-05-02T12:38:10.696Z,17.9056
2023-05-02T12:39:12.539Z,17.9849
2023-05-02T12:40:14.409Z,17.8150
2023-05-02T12:41:16.207Z,17.5361
2023-05-02T12:42:18.051Z,17.4716
2023-05-02T12:43:19.885Z,17.5443
2023-05-02T12:44:21.730Z,17.6478
2023-05-02T12:45:23.580Z,17.7750
2023-05-02T12:46:25.491Z,17.8105
2023-05-02T12:47:27.399Z,17.6183
2023-05-02T12:48:29.098Z,17.5166
2023-05-02T12:49:30.939Z,17.5877
2023-05-02T12:50:32.771Z,17.6840
2023-05-02T12:51:34.877Z,17.7742
2023-05-02T12:52:36.460Z,17.8662
2023-05-02T12:53:38.285Z,17.7281
2023-05-02T12:54:40.115Z,17.4999
2023-05-02T12:55:41.964Z,17.4812
2023-05-02T12:56:43.951Z,17.5920
2023-05-02T12:57:45.645Z,17.7006
2023-05-02T12:58:47.498Z,17.8070
2023-05-02T12:59:49.308Z,17.8009
2023-05-02T13:00:51.174Z,17.5837
2023-05-02T13:01:52.978Z,17.4954
2023-05-02T13:02:54.854Z,17.5575
2023-05-02T13:03:56.659Z,17.6511
2023-05-02T13:04:58.496Z,17.7592
2023-05-02T13:06:00.379Z,17.8087
2023-05-02T13:07:02.225Z,17.6466
2023-05-02T13:08:04.086Z,17.5192
2023-05-02T13:09:05.872Z,17.5675
2023-05-02T13:10:07.737Z,17.6723
2023-05-02T13:11:09.542Z,17.7830
2023-05-02T13:12:11.394Z,17.8875
2023-05-02T13:13:13.245Z,17.7532
2023-05-02T13:14:15.073Z,17.5034
2023-05-02T13:15:16.936Z,17.4658
2023-05-02T13:16:18.942Z,17.5564
2023-05-02T13:17:20.715Z,17.6556
2023-05-02T13:18:22.451Z,17.7606
2023-05-02T13:19:24.261Z,17.7721
2023-05-02T13:20:26.094Z,17.5753
2023-05-02T13:21:27.927Z,17.5373
2023-05-02T13:22:29.772Z,17.6026
2023-05-02T13:23:31.592Z,17.6980
2023-05-02T13:24:33.419Z,17.7904
2023-05-02T13:25:35.260Z,17.8528
2023-05-02T13:26:37.150Z,17.6546
2023-05-02T13:27:38.949Z,17.4979
2023-05-02T13:28:40.838Z,17.5390
2023-05-02T13:29:42.667Z,17.6554
2023-05-02T13:30:44.527Z,17.7664
2023-05-02T13:31:46.342Z,17.8824
2023-05-02T13:32:48.203Z,17.7725
2023-05-02T13:33:50.014Z,17.5466
2023-05-02T13:34:51.854Z,17.4862
2023-05-02T13:35:53.696Z,17.5373
2023-05-02T13:36:55.536Z,17.6275
2023-05-02T13:37:57.371Z,17.7357
2023-05-02T13:38:59.225Z,17.7483
2023-05-02T13:40:01.226Z,17.6107
2023-05-02T13:41:02.884Z,17.6061
2023-05-02T13:42:06.100Z,17.6536
2023-05-02T13:43:06.551Z,17.7419
2023-05-02T13:44:08.390Z,17.8528
2023-05-02T13:45:10.251Z,17.8360
2023-05-02T13:46:12.112Z,17.6043
2023-05-02T13:47:13.915Z,17.4697
2023-05-02T13:48:15.779Z,17.5398
2023-05-02T13:49:17.588Z,17.6659
2023-05-02T13:50:19.438Z,17.7729
2023-05-02T13:51:21.282Z,17.8530
2023-05-02T13:52:23.113Z,17.7148
2023-05-02T13:53:24.948Z,17.5080
2023-05-02T13:54:26.792Z,17.5038
2023-05-02T13:55:28.634Z,17.5819
2023-05-02T13:56:30.470Z,17.6938
2023-05-02T13:57:32.315Z,17.8017
2023-05-02T13:58:34.183Z,17.7863
2023-05-02T13:59:36.132Z,17.5704
2023-05-02T14:00:37.806Z,17.5018
2023-05-02T14:01:39.703Z,17.5909
2023-05-02T14:02:41.590Z,17.6865
2023-05-02T14:03:43.409Z,17.7883
2023-05-02T14:04:45.153Z,17.8253
2023-05-02T14:05:47.001Z,17.6162
2023-05-02T14:06:48.898Z,17.5053
2023-05-02T14:07:50.673Z,17.5642
2023-05-02T14:08:52.597Z,17.6647
2023-05-02T14:09:54.348Z,17.7473
2023-05-02T14:10:56.240Z,17.8432
2023-05-02T14:11:58.041Z,17.7093
2023-05-02T14:12:59.869Z,17.5012
2023-05-02T14:14:01.705Z,17.4841
2023-05-02T14:15:03.643Z,17.5930
2023-05-02T14:16:05.433Z,17.7027
2023-05-02T14:17:07.237Z,17.8138
2023-05-02T14:18:09.311Z,17.8074
2023-05-02T14:19:19.556Z,17.6532
2023-05-02T14:20:12.744Z,17.6289
2023-05-02T14:21:14.562Z,17.6780
2023-05-02T14:22:16.406Z,17.7717
2023-05-02T14:23:18.235Z,17.8795
2023-05-02T14:24:20.072Z,17.8541
2023-05-02T14:25:21.917Z,17.5916
2023-05-02T14:26:23.764Z,17.5020
2023-05-02T14:27:25.597Z,17.5587
2023-05-02T14:28:27.430Z,17.6550
2023-05-02T14:29:29.274Z,17.7571
2023-05-02T14:30:31.108Z,17.8315
2023-05-02T14:31:33.015Z,17.6772
2023-05-02T14:32:34.865Z,17.5663
2023-05-02T14:33:36.616Z,17.6055
2023-05-02T14:34:38.460Z,17.6904
2023-05-02T14:35:40.286Z,17.7918
2023-05-02T14:36:42.120Z,17.8925
2023-05-02T14:37:43.957Z,17.7497
2023-05-02T14:38:45.813Z,17.5268
2023-05-02T14:39:50.735Z,17.5135
2023-05-02T14:40:49.469Z,17.5926
2023-05-02T14:41:51.312Z,17.6858
2023-05-02T14:42:53.164Z,17.7758
2023-05-02T14:43:54.978Z,17.7489
2023-05-02T14:44:58.906Z,17.5837
2023-05-02T14:45:58.648Z,17.5759
2023-05-02T14:47:00.544Z,17.6491
2023-05-02T14:48:02.392Z,17.7386
2023-05-02T14:49:04.169Z,17.8325
2023-05-02T14:50:06.075Z,17.8598
2023-05-02T14:51:07.826Z,17.6228
2023-05-02T14:52:09.681Z,17.5153
2023-05-02T14:53:11.512Z,17.5499
2023-05-02T14:54:13.360Z,17.6524
2023-05-02T14:55:15.190Z,17.7253
2023-05-02T14:56:17.021Z,17.8226
2023-05-02T14:57:18.895Z,17.6949
2023-05-02T14:58:21.040Z,17.5381
2023-05-02T14:59:22.673Z,17.5564
2023-05-02T15:00:24.370Z,17.6072
2023-05-02T15:01:26.294Z,17.7117
2023-05-02T15:02:28.123Z,17.8325
2023-05-02T15:03:30.026Z,17.7487
2023-05-02T15:04:31.990Z,17.5266
2023-05-02T15:05:33.536Z,17.4905
2023-05-02T15:06:35.975Z,17.5694
2023-05-02T15:07:37.226Z,17.6828
2023-05-02T15:08:39.274Z,17.7970
2023-05-02T15:09:40.908Z,17.8214
2023-05-02T15:10:42.740Z,17.6047
2023-05-02T15:11:44.585Z,17.4934
2023-05-02T15:12:46.408Z,17.5667
2023-05-02T15:13:48.271Z,17.6801
2023-05-02T15:14:50.094Z,17.7953
2023-05-02T15:15:51.949Z,17.8797
2023-05-02T15:16:53.825Z,17.7027
2023-05-02T15:17:55.696Z,17.4525
2023-05-02T15:18:57.458Z,17.4548
2023-05-02T15:19:59.426Z,17.5589
2023-05-02T15:21:01.130Z,17.6774
2023-05-02T15:22:02.981Z,17.7918
2023-05-02T15:23:04.865Z,17.8046
2023-05-02T15:24:06.663Z,17.5860
2023-05-02T15:25:08.500Z,17.5377
2023-05-02T15:26:10.330Z,17.5895
2023-05-02T15:27:12.182Z,17.6848
2023-05-02T15:28:14.039Z,17.7764
2023-05-02T15:29:15.849Z,17.8167
2023-05-02T15:30:18.092Z,17.6127
2023-05-02T15:31:19.563Z,17.5303
2023-05-02T15:32:21.451Z,17.5854
2023-05-02T15:33:23.206Z,17.6669
2023-05-02T15:34:25.074Z,17.7939
2023-05-02T15:35:26.890Z,17.8812
2023-05-02T15:36:28.766Z,17.7031
2023-05-02T15:37:30.582Z,17.4923
2023-05-02T15:38:32.399Z,17.5170
2023-05-02T15:39:34.253Z,17.6039
2023-05-02T15:40:36.080Z,17.7150
2023-05-02T15:41:37.928Z,17.8130
2023-05-02T15:42:39.773Z,17.7709
2023-05-02T15:43:41.608Z,17.5515
2023-05-02T15:44:43.446Z,17.5511
2023-05-02T15:45:45.278Z,17.6252
2023-05-02T15:46:47.349Z,17.7423
2023-05-02T15:47:48.942Z,17.8331
2023-05-02T15:48:50.813Z,17.8582
2023-05-02T15:49:52.614Z,17.6178
2023-05-02T15:50:54.485Z,17.4595
2023-05-02T15:51:56.316Z,17.4917
2023-05-02T15:52:58.151Z,17.5969
2023-05-02T15:53:59.967Z,17.7101
2023-05-02T15:55:01.837Z,17.7976
2023-05-02T15:56:03.637Z,17.7053
2023-05-02T15:57:05.476Z,17.5835
2023-05-02T15:58:07.294Z,17.5938
2023-05-02T15:59:09.131Z,17.6369
2023-05-02T16:00:10.981Z,17.7345
2023-05-02T16:01:12.855Z,17.8280
2023-05-02T16:02:14.657Z,17.7115
2023-05-02T16:03:16.494Z,17.5425
2023-05-02T16:04:18.349Z,17.5441
2023-05-02T16:05:20.167Z,17.6320
2023-05-02T16:06:22.048Z,17.7526
2023-05-02T16:07:23.848Z,17.8623
2023-05-02T16:08:25.685Z,17.8117
2023-05-02T16:09:27.516Z,17.5554
2023-05-02T16:10:29.357Z,17.4494
2023-05-02T16:11:31.259Z,17.5207
2023-05-02T16:12:33.034Z,17.6273
2023-05-02T16:13:34.881Z,17.7468
2023-05-02T16:14:36.727Z,17.8280
2023-05-02T16:15:38.557Z,17.6727
2023-05-02T16:16:40.593Z,17.4827
2023-05-02T16:17:42.274Z,17.5351
2023-05-02T16:18:44.091Z,17.6246
2023-05-02T16:19:45.927Z,17.7442
2023-05-02T16:20:47.794Z,17.8483
2023-05-02T16:21:49.610Z,17.7766
2023-05-02T16:22:51.451Z,17.5796
2023-05-02T16:23:53.279Z,17.5646
2023-05-02T16:24:55.133Z,17.6115
2023-05-02T16:25:56.966Z,17.6986
2023-05-02T16:26:58.829Z,17.8072
2023-05-02T16:28:00.648Z,17.7744
2023-05-02T16:29:02.496Z,17.6372
2023-05-02T16:30:04.604Z,17.6224
2023-05-02T16:31:06.229Z,17.6951
2023-05-02T16:32:08.035Z,17.7910
2023-05-02T16:33:09.902Z,17.8869
2023-05-02T16:34:11.696Z,17.8356
2023-05-02T16:35:13.560Z,17.5585
2023-05-02T16:36:15.375Z,17.4628
2023-05-02T16:37:17.244Z,17.5110
2023-05-02T16:38:19.065Z,17.6049
2023-05-02T16:39:20.926Z,17.7060
2023-05-02T16:40:22.749Z,17.7972
2023-05-02T16:41:24.605Z,17.6840
2023-05-02T16:42:26.420Z,17.6139
2023-05-02T16:43:28.267Z,17.6910
2023-05-02T16:44:30.103Z,17.7955
2023-05-02T16:45:31.957Z,17.8953
2023-05-02T16:46:33.849Z,17.9837
2023-05-02T16:47:35.637Z,17.7949
2023-05-02T16:48:37.467Z,17.5234
2023-05-02T16:49:39.313Z,17.4773
2023-05-02T16:50:41.143Z,17.5546
2023-05-02T16:51:43.014Z,17.6515
2023-05-02T16:52:44.827Z,17.7606
2023-05-02T16:53:46.647Z,17.7735
2023-05-02T16:54:48.498Z,17.6285
2023-05-02T16:55:50.343Z,17.6374
2023-05-02T16:56:52.175Z,17.7064
2023-05-02T16:57:53.993Z,17.7801
2023-05-02T16:58:55.854Z,17.8941
2023-05-02T16:59:57.670Z,17.8863
2023-05-02T17:00:59.562Z,17.6230
2023-05-02T17:02:01.395Z,17.4383
2023-05-02T17:03:05.212Z,17.4956
2023-05-02T17:04:05.029Z,17.5842
2023-05-02T17:05:06.891Z,17.6871
2023-05-02T17:06:08.731Z,17.7709
2023-05-02T17:07:10.554Z,17.7010
2023-05-02T17:08:12.408Z,17.5932
2023-05-02T17:09:14.239Z,17.6117
2023-05-02T17:10:16.112Z,17.6914
2023-05-02T17:11:17.916Z,17.8002
2023-05-02T17:12:19.781Z,17.8964
2023-05-02T17:13:21.598Z,17.7450
2023-05-02T17:14:23.447Z,17.4732
2023-05-02T17:15:25.287Z,17.4552
2023-05-02T17:16:27.150Z,17.5536
2023-05-02T17:17:28.968Z,17.6760
2023-05-02T17:18:30.788Z,17.7896
2023-05-02T17:19:32.649Z,17.8066
2023-05-02T17:20:34.470Z,17.5918
2023-05-02T17:21:36.301Z,17.5281
2023-05-02T17:22:38.163Z,17.5936
2023-05-02T17:23:39.982Z,17.6904
2023-05-02T17:24:41.825Z,17.7764
2023-05-02T17:25:43.675Z,17.8300
2023-05-02T17:26:45.511Z,17.5946
2023-05-02T17:27:47.495Z,17.4669
2023-05-02T17:28:49.195Z,17.5197
2023-05-02T17:29:51.029Z,17.6035
2023-05-02T17:30:52.926Z,17.7271
2023-05-02T17:31:54.775Z,17.8401
2023-05-02T17:32:56.672Z,17.7366
2023-05-02T17:33:58.446Z,17.5047
2023-05-02T17:35:00.313Z,17.4745
2023-05-02T17:36:02.139Z,17.5550
2023-05-02T17:37:03.992Z,17.6698
2023-05-02T17:38:05.804Z,17.7955
2023-05-02T17:39:07.640Z,17.8007
2023-05-02T17:40:09.494Z,17.5971
2023-05-02T17:41:11.343Z,17.5001
2023-05-02T17:42:13.182Z,17.5445
2023-05-02T17:43:15.025Z,17.6367
2023-05-02T17:44:16.862Z,17.7503
2023-05-02T17:45:18.686Z,17.8154
2023-05-02T17:46:20.638Z,17.6287
2023-05-02T17:47:22.367Z,17.4587
2023-05-02T17:48:24.229Z,17.5227
2023-05-02T17:49:26.041Z,17.6347